Time;durP1;ratioP1;P1;durP2;ratioP2;P2;SDS_P1;SDS_P2;PMS_P1;PMS_P2;Temp;Humidity;BMP_temperature;BMP_pressure;BME280_temperature;BME280_humidity;BME280_pressure;Samples;Min_cycle;Max_cycle;Signal;HPM_P1;HPM_P2
2024/03/25 00:02:35;;;;;;;3.08;2.05;;;24.10;42.40;;;;;;6157562;28;80954;-60
2024/03/25 00:05:36;;;;;;;2.72;2.20;;;24.10;42.40;;;;;;6153823;28;81211;-60
2024/03/25 00:08:37;;;;;;;3.20;2.00;;;24.10;42.30;;;;;;6153921;28;81452;-59
2024/03/25 00:11:37;;;;;;;3.25;2.00;;;24.10;42.30;;;;;;6162425;28;81280;-54
2024/03/25 00:14:38;;;;;;;2.38;1.90;;;24.10;42.30;;;;;;6171049;28;81198;-53
2024/03/25 00:17:39;;;;;;;4.05;2.10;;;24.10;42.30;;;;;;6170959;28;80568;-57
2024/03/25 00:20:39;;;;;;;3.22;2.08;;;24.10;42.40;;;;;;6172521;28;80853;-56
2024/03/25 00:23:40;;;;;;;3.90;2.00;;;24.10;42.20;;;;;;6158076;28;80783;-56
2024/03/25 00:26:40;;;;;;;3.33;2.30;;;24.10;42.30;;;;;;6163147;28;83628;-56
2024/03/25 00:29:41;;;;;;;3.25;1.80;;;24.10;42.30;;;;;;6153941;28;84406;-62
2024/03/25 00:32:41;;;;;;;2.95;2.00;;;24.10;42.30;;;;;;6156556;28;80503;-60
2024/03/25 00:35:42;;;;;;;2.88;1.88;;;24.10;42.30;;;;;;6166162;28;81022;-61
2024/03/25 00:38:43;;;;;;;3.60;2.10;;;24.10;42.20;;;;;;6161510;28;82849;-60
2024/03/25 00:41:44;;;;;;;5.43;2.15;;;24.10;42.30;;;;;;6157383;28;81054;-61
2024/03/25 00:44:44;;;;;;;2.42;1.75;;;24.10;42.20;;;;;;6165737;28;80241;-60
2024/03/25 00:47:45;;;;;;;2.92;1.90;;;24.10;43.00;;;;;;6160477;28;80874;-56
2024/03/25 00:50:45;;;;;;;2.90;2.03;;;24.10;42.10;;;;;;6151791;28;80585;-53
2024/03/25 00:53:46;;;;;;;3.13;1.88;;;24.10;42.00;;;;;;6152562;28;80607;-50
2024/03/25 00:56:46;;;;;;;3.38;1.90;;;24.10;42.00;;;;;;6152752;28;83355;-52
2024/03/25 00:59:47;;;;;;;3.63;2.00;;;24.10;42.00;;;;;;6153211;28;80200;-54
2024/03/25 01:02:47;;;;;;;3.03;1.80;;;24.10;42.00;;;;;;6153118;28;80301;-53
2024/03/25 01:05:48;;;;;;;3.22;1.77;;;24.10;42.00;;;;;;6151846;28;80957;-55
2024/03/25 01:08:48;;;;;;;2.30;1.70;;;24.00;42.00;;;;;;6152730;28;80375;-54
2024/03/25 01:11:49;;;;;;;4.88;2.20;;;24.00;41.90;;;;;;6175558;28;80863;-54
2024/03/25 01:14:49;;;;;;;2.67;1.85;;;24.00;41.80;;;;;;6176840;28;80924;-56
2024/03/25 01:17:50;;;;;;;3.53;2.42;;;24.00;41.90;;;;;;6158476;28;80635;-53
2024/03/25 01:20:50;;;;;;;2.42;1.48;;;24.00;41.90;;;;;;6154060;28;83057;-55
2024/03/25 01:23:51;;;;;;;2.13;1.70;;;24.00;41.90;;;;;;6172102;28;80712;-62
2024/03/25 01:26:51;;;;;;;4.10;1.75;;;24.00;41.80;;;;;;6172896;28;80076;-62
2024/03/25 01:29:52;;;;;;;2.83;1.45;;;24.00;41.90;;;;;;6155325;28;80449;-62
2024/03/25 01:32:52;;;;;;;2.22;1.67;;;24.00;41.90;;;;;;6163073;28;81586;-63
2024/03/25 01:35:55;;;;;;;2.75;1.88;;;24.00;41.80;;;;;;6153310;28;80434;-62
2024/03/25 01:38:56;;;;;;;2.80;1.67;;;24.00;41.90;;;;;;6152356;28;81708;-62
2024/03/25 01:41:56;;;;;;;2.13;1.73;;;24.00;41.90;;;;;;6163908;28;82303;-61
2024/03/25 01:44:57;;;;;;;2.28;1.60;;;24.00;42.00;;;;;;6152992;28;80722;-62
2024/03/25 01:47:57;;;;;;;2.15;1.42;;;24.00;41.90;;;;;;6169648;28;80297;-62
2024/03/25 01:50:58;;;;;;;1.92;1.33;;;24.00;42.00;;;;;;6164024;28;82202;-63
2024/03/25 01:53:58;;;;;;;2.75;1.70;;;24.00;42.00;;;;;;6158084;28;80192;-63
2024/03/25 01:56:59;;;;;;;2.00;1.35;;;24.00;42.10;;;;;;6168644;28;80469;-62
2024/03/25 01:59:59;;;;;;;2.47;1.40;;;24.00;42.20;;;;;;6169126;28;81995;-62
2024/03/25 02:03:02;;;;;;;2.58;1.48;;;24.00;42.10;;;;;;6180810;28;82286;-62
2024/03/25 02:06:03;;;;;;;2.03;1.33;;;24.00;41.90;;;;;;6155747;28;80870;-62
2024/03/25 02:09:03;;;;;;;1.92;1.30;;;24.00;41.80;;;;;;6157619;28;80456;-62
2024/03/25 02:12:04;;;;;;;2.53;1.45;;;23.90;41.70;;;;;;6168162;28;80950;-61
2024/03/25 02:15:04;;;;;;;1.88;1.33;;;24.00;41.70;;;;;;6156396;28;80337;-61
2024/03/25 02:18:05;;;;;;;2.00;1.50;;;24.00;41.70;;;;;;6168969;28;80267;-56
2024/03/25 02:21:06;;;;;;;2.40;1.63;;;24.00;41.70;;;;;;6155697;28;80338;-56
2024/03/25 02:24:07;;;;;;;2.15;1.50;;;23.90;41.60;;;;;;6168576;28;80384;-56
2024/03/25 02:27:08;;;;;;;2.33;1.27;;;24.00;41.70;;;;;;6161683;28;80892;-52
2024/03/25 02:30:08;;;;;;;1.48;1.20;;;24.00;41.60;;;;;;6159072;28;80492;-56
2024/03/25 02:33:09;;;;;;;2.72;1.50;;;23.90;41.60;;;;;;6157436;28;82724;-56
2024/03/25 02:36:09;;;;;;;1.48;1.10;;;23.90;41.60;;;;;;6159123;28;81088;-56
2024/03/25 02:39:10;;;;;;;1.50;1.27;;;23.90;41.50;;;;;;6155782;28;80839;-51
2024/03/25 02:42:11;;;;;;;1.73;1.33;;;23.90;41.60;;;;;;6154898;28;80735;-52
2024/03/25 02:45:11;;;;;;;2.13;1.35;;;23.90;41.70;;;;;;6155237;28;80109;-51
2024/03/25 02:48:12;;;;;;;1.88;1.55;;;23.90;41.70;;;;;;6155110;28;82015;-51
2024/03/25 02:51:12;;;;;;;2.08;1.23;;;23.90;41.60;;;;;;6154361;28;80406;-52
2024/03/25 02:54:13;;;;;;;1.38;1.15;;;23.90;41.60;;;;;;6154790;28;81516;-51
2024/03/25 02:57:14;;;;;;;2.33;1.13;;;23.90;41.60;;;;;;6156427;28;81392;-55
2024/03/25 03:00:14;;;;;;;2.13;1.20;;;23.90;41.50;;;;;;6171900;28;80377;-55
2024/03/25 03:03:15;;;;;;;1.92;1.02;;;23.90;41.90;;;;;;6155635;28;80493;-53
2024/03/25 03:06:15;;;;;;;1.60;1.10;;;23.90;41.60;;;;;;6166262;28;81084;-56
2024/03/25 03:09:16;;;;;;;1.45;1.00;;;23.90;41.60;;;;;;6155249;28;80272;-52
2024/03/25 03:12:16;;;;;;;2.13;1.08;;;23.90;41.60;;;;;;6154568;28;80601;-55
2024/03/25 03:15:17;;;;;;;2.10;1.55;;;23.90;41.60;;;;;;6155414;28;80660;-54
2024/03/25 03:18:17;;;;;;;1.25;1.00;;;23.90;41.80;;;;;;6154066;28;80752;-56
2024/03/25 03:21:18;;;;;;;1.98;1.48;;;23.90;41.60;;;;;;6161244;28;80859;-56
2024/03/25 03:24:18;;;;;;;1.55;1.10;;;23.90;41.80;;;;;;6158511;28;80438;-55
2024/03/25 03:27:19;;;;;;;1.52;1.23;;;23.90;41.90;;;;;;6166742;28;81042;-55
2024/03/25 03:30:19;;;;;;;1.13;0.90;;;23.90;41.70;;;;;;6153041;28;80545;-58
2024/03/25 03:33:20;;;;;;;0.80;0.80;;;23.90;41.60;;;;;;6168870;28;81513;-57
2024/03/25 03:36:20;;;;;;;1.80;1.20;;;23.90;41.60;;;;;;6154199;28;81688;-54
2024/03/25 03:39:21;;;;;;;1.00;0.85;;;23.90;41.60;;;;;;6158732;28;81693;-56
2024/03/25 03:42:21;;;;;;;1.45;1.20;;;23.90;41.70;;;;;;6178754;28;80380;-56
2024/03/25 03:45:22;;;;;;;1.88;1.20;;;23.90;41.70;;;;;;6165856;28;81598;-58
2024/03/25 03:48:22;;;;;;;2.28;1.45;;;23.90;41.70;;;;;;6167301;28;80338;-58
2024/03/25 03:51:23;;;;;;;1.98;1.08;;;23.90;41.80;;;;;;6156031;28;81790;-62
2024/03/25 03:54:23;;;;;;;1.33;0.85;;;23.90;41.70;;;;;;6172567;28;80408;-60
2024/03/25 03:57:25;;;;;;;1.23;1.00;;;24.00;42.20;;;;;;6168192;28;80767;-61
2024/03/25 04:00:26;;;;;;;1.30;1.10;;;24.00;41.80;;;;;;6153249;28;83160;-64
2024/03/25 04:03:26;;;;;;;1.45;1.05;;;23.90;41.70;;;;;;6156936;28;80164;-65
2024/03/25 04:06:27;;;;;;;4.00;0.90;;;23.90;42.00;;;;;;6140767;28;81136;-64
2024/03/25 04:09:29;;;;;;;1.08;0.85;;;23.90;42.00;;;;;;6151805;28;80301;-66
2024/03/25 04:12:29;;;;;;;0.93;0.90;;;23.90;41.80;;;;;;6165845;28;80576;-63
2024/03/25 04:15:31;;;;;;;1.83;1.00;;;23.90;41.90;;;;;;6168703;28;80815;-63
2024/03/25 04:18:31;;;;;;;1.27;1.10;;;23.90;42.00;;;;;;6166932;28;81077;-69
2024/03/25 04:21:32;;;;;;;2.33;1.05;;;23.90;42.20;;;;;;6163696;28;80320;-64
2024/03/25 04:24:34;;;;;;;1.50;1.00;;;23.90;42.30;;;;;;6166618;28;80709;-64
2024/03/25 04:27:35;;;;;;;1.10;0.80;;;24.00;42.10;;;;;;6169945;28;80526;-55
2024/03/25 04:30:36;;;;;;;1.75;0.98;;;24.00;42.10;;;;;;6166918;28;80727;-53
2024/03/25 04:33:36;;;;;;;1.42;0.98;;;24.00;41.60;;;;;;6167006;28;82005;-54
2024/03/25 04:36:37;;;;;;;2.55;1.15;;;24.00;41.30;;;;;;6155955;28;80407;-55
2024/03/25 04:39:38;;;;;;;1.42;1.20;;;24.00;41.10;;;;;;6153107;28;80501;-54
2024/03/25 04:42:38;;;;;;;1.67;0.90;;;24.10;41.20;;;;;;6157099;28;80582;-55
2024/03/25 04:45:39;;;;;;;3.15;1.00;;;24.10;41.30;;;;;;6157012;28;83312;-49
2024/03/25 04:48:39;;;;;;;2.22;1.15;;;24.10;41.50;;;;;;6164989;28;80494;-55
2024/03/25 04:51:39;;;;;;;3.08;0.90;;;24.20;41.60;;;;;;6164909;28;81080;-53
2024/03/25 04:54:40;;;;;;;0.98;0.82;;;24.20;41.60;;;;;;6161502;28;80965;-59
2024/03/25 04:57:40;;;;;;;1.67;0.85;;;24.20;41.40;;;;;;6152172;28;80566;-49
2024/03/25 05:00:41;;;;;;;1.38;0.98;;;24.20;41.50;;;;;;6159603;28;81349;-47
2024/03/25 05:03:42;;;;;;;2.28;1.10;;;24.30;42.10;;;;;;6164390;28;80801;-59
2024/03/25 05:06:42;;;;;;;3.33;1.77;;;24.30;42.50;;;;;;6163506;28;84409;-55
2024/03/25 05:09:43;;;;;;;2.10;1.20;;;24.30;42.50;;;;;;6162450;28;85794;-55
2024/03/25 05:12:44;;;;;;;2.72;1.13;;;24.40;42.60;;;;;;6158580;28;80657;-56
2024/03/25 05:15:44;;;;;;;4.05;1.30;;;24.40;42.40;;;;;;6152229;28;80494;-52
2024/03/25 05:18:45;;;;;;;1.85;1.25;;;24.40;42.50;;;;;;6151228;28;82269;-55
2024/03/25 05:21:45;;;;;;;10.18;1.52;;;24.40;42.80;;;;;;6150368;28;80781;-59
2024/03/25 05:24:46;;;;;;;3.90;1.17;;;24.40;43.00;;;;;;6148747;28;80961;-62
2024/03/25 05:27:46;;;;;;;7.13;1.73;;;24.50;43.50;;;;;;6159274;28;81634;-58
2024/03/25 05:30:47;;;;;;;4.55;1.60;;;24.50;43.50;;;;;;6152489;28;82679;-55
2024/03/25 05:33:47;;;;;;;10.55;1.80;;;24.50;43.60;;;;;;6159411;28;80507;-49
2024/03/25 05:36:48;;;;;;;2.53;1.00;;;24.50;43.60;;;;;;6156586;28;80749;-60
2024/03/25 05:39:48;;;;;;;6.38;1.48;;;24.50;43.90;;;;;;6154852;28;81828;-53
2024/03/25 05:42:49;;;;;;;6.88;1.50;;;24.50;44.10;;;;;;6172140;28;80665;-58
2024/03/25 05:45:49;;;;;;;2.10;1.30;;;24.50;44.10;;;;;;6166404;28;82261;-57
2024/03/25 05:48:50;;;;;;;7.78;1.73;;;24.50;44.10;;;;;;6148018;28;80370;-59
2024/03/25 05:51:50;;;;;;;5.70;0.98;;;24.50;44.10;;;;;;6152513;28;81832;-55
2024/03/25 05:54:51;;;;;;;2.75;1.70;;;24.50;44.00;;;;;;6155790;28;80982;-57
2024/03/25 05:57:52;;;;;;;3.03;1.70;;;24.50;43.90;;;;;;6150960;28;85586;-59
2024/03/25 06:00:55;;;;;;;3.47;1.05;;;24.40;43.60;;;;;;6156059;28;82461;-59
2024/03/25 06:03:56;;;;;;;4.50;1.30;;;24.40;43.40;;;;;;6148526;28;80825;-59
2024/03/25 06:06:56;;;;;;;2.33;1.17;;;24.40;43.20;;;;;;6163487;28;80589;-59
2024/03/25 06:09:57;;;;;;;5.57;1.42;;;24.40;43.00;;;;;;6162189;28;80752;-59
2024/03/25 06:12:57;;;;;;;1.73;1.17;;;24.40;43.00;;;;;;6150495;28;80548;-59
2024/03/25 06:15:58;;;;;;;2.65;1.30;;;24.40;42.90;;;;;;6150871;28;82685;-59
2024/03/25 06:18:58;;;;;;;2.75;1.38;;;24.40;42.80;;;;;;6156538;28;82698;-68
2024/03/25 06:21:59;;;;;;;4.30;1.65;;;24.30;42.90;;;;;;6162306;28;81076;-70
2024/03/25 06:24:59;;;;;;;3.30;1.17;;;24.30;42.70;;;;;;6165900;28;80544;-71
2024/03/25 06:28:00;;;;;;;7.20;1.20;;;24.30;42.70;;;;;;6167324;28;81621;-70
2024/03/25 06:34:23;;;;;;;2.30;1.33;;;24.30;42.30;;;;;;6164556;28;80718;-68
2024/03/25 06:37:23;;;;;;;2.28;1.30;;;24.20;42.20;;;;;;6159662;28;81463;-57
2024/03/25 06:40:24;;;;;;;2.40;1.27;;;24.20;42.40;;;;;;6155490;28;82647;-59
2024/03/25 06:43:24;;;;;;;4.70;1.08;;;24.20;42.30;;;;;;6155599;28;80266;-60
2024/03/25 06:46:25;;;;;;;1.80;1.20;;;24.10;42.40;;;;;;6155882;28;80337;-59
2024/03/25 06:49:26;;;;;;;2.15;1.13;;;24.10;42.30;;;;;;6161115;28;80483;-59
2024/03/25 06:52:26;;;;;;;2.83;1.45;;;24.10;42.10;;;;;;6157077;28;82193;-59
2024/03/25 06:55:28;;;;;;;3.53;1.10;;;24.10;42.20;;;;;;6157335;28;80863;-58
2024/03/25 06:58:28;;;;;;;3.35;1.30;;;24.10;42.30;;;;;;6162589;28;80867;-59
2024/03/25 07:01:29;;;;;;;1.17;0.80;;;24.10;42.30;;;;;;6158385;28;80685;-59
2024/03/25 07:04:29;;;;;;;1.85;1.30;;;24.10;41.90;;;;;;6156910;28;80622;-59
2024/03/25 07:07:30;;;;;;;1.60;1.00;;;24.10;42.00;;;;;;6141050;28;82536;-57
2024/03/25 07:10:30;;;;;;;2.15;0.90;;;24.10;41.90;;;;;;6157182;28;81389;-58
2024/03/25 07:13:31;;;;;;;1.55;0.88;;;24.10;41.80;;;;;;6156552;28;80986;-58
2024/03/25 07:16:32;;;;;;;1.92;1.00;;;24.10;41.80;;;;;;6165661;28;80663;-58
2024/03/25 07:19:32;;;;;;;3.95;1.45;;;24.00;41.70;;;;;;6166038;28;82220;-58
2024/03/25 07:22:33;;;;;;;4.18;1.10;;;24.10;41.70;;;;;;6156765;28;80383;-58
2024/03/25 07:25:33;;;;;;;2.22;0.93;;;24.00;41.60;;;;;;6172338;28;80415;-59
2024/03/25 07:28:34;;;;;;;2.08;1.00;;;24.00;41.50;;;;;;6160771;28;80642;-59
2024/03/25 07:31:34;;;;;;;2.00;1.00;;;24.00;41.60;;;;;;6158033;28;80657;-55
2024/03/25 07:34:35;;;;;;;1.05;0.95;;;24.00;41.50;;;;;;6159661;28;80373;-55
2024/03/25 07:37:35;;;;;;;1.50;0.90;;;24.00;41.50;;;;;;6154198;28;80760;-55
2024/03/25 07:40:36;;;;;;;1.58;1.02;;;24.00;41.50;;;;;;6154023;28;80933;-56
2024/03/25 07:43:36;;;;;;;1.60;0.80;;;24.00;41.50;;;;;;6160542;28;80386;-54
2024/03/25 07:46:37;;;;;;;1.02;0.80;;;24.00;41.40;;;;;;6162725;28;80399;-54
2024/03/25 07:49:39;;;;;;;1.15;1.02;;;24.00;41.40;;;;;;6154283;28;82726;-60
2024/03/25 07:52:40;;;;;;;0.90;0.82;;;24.00;41.40;;;;;;6162950;28;82958;-58
2024/03/25 07:55:40;;;;;;;2.30;1.00;;;24.00;41.50;;;;;;6151568;28;80603;-58
2024/03/25 07:58:41;;;;;;;1.13;0.80;;;24.00;41.50;;;;;;6156903;28;83112;-58
2024/03/25 08:01:43;;;;;;;1.55;0.98;;;24.00;41.50;;;;;;6159340;28;81208;-58
2024/03/25 08:04:45;;;;;;;2.08;1.00;;;23.90;41.30;;;;;;6164633;28;80249;-57
2024/03/25 08:07:46;;;;;;;1.13;0.90;;;24.00;41.40;;;;;;6164844;28;80045;-59
2024/03/25 08:10:46;;;;;;;0.93;0.82;;;24.00;41.30;;;;;;6161243;28;80586;-58
2024/03/25 08:13:47;;;;;;;2.65;1.10;;;23.90;41.20;;;;;;6170058;28;80424;-58
2024/03/25 08:16:47;;;;;;;1.23;0.80;;;24.00;41.40;;;;;;6167412;28;81405;-56
2024/03/25 08:19:48;;;;;;;3.17;1.08;;;23.90;41.40;;;;;;6157764;28;81454;-59
2024/03/25 08:22:49;;;;;;;1.17;0.90;;;23.90;41.40;;;;;;6153036;28;81139;-59
2024/03/25 08:25:49;;;;;;;1.33;0.85;;;23.90;41.50;;;;;;6162736;28;80829;-59
2024/03/25 08:28:49;;;;;;;1.75;1.00;;;23.90;41.50;;;;;;6156957;28;82212;-60
2024/03/25 08:31:50;;;;;;;1.27;1.00;;;24.00;41.50;;;;;;6159013;28;80527;-59
2024/03/25 08:34:51;;;;;;;1.15;0.75;;;24.00;41.50;;;;;;6157327;28;80305;-58
2024/03/25 08:37:51;;;;;;;1.75;1.20;;;23.90;41.60;;;;;;6149614;28;81128;-57
2024/03/25 08:40:52;;;;;;;1.48;0.88;;;24.00;41.60;;;;;;6160366;28;80470;-59
2024/03/25 08:43:52;;;;;;;1.55;1.05;;;23.90;41.60;;;;;;6159217;28;80888;-65
2024/03/25 08:46:53;;;;;;;3.25;1.02;;;24.00;41.60;;;;;;6157102;28;80781;-63
2024/03/25 08:49:53;;;;;;;1.38;0.98;;;24.00;41.90;;;;;;6173688;28;82667;-64
2024/03/25 08:52:54;;;;;;;0.95;0.73;;;24.00;42.40;;;;;;6168530;28;80457;-65
2024/03/25 08:55:55;;;;;;;0.80;0.80;;;24.00;41.80;;;;;;6172431;28;80583;-67
2024/03/25 08:58:57;;;;;;;1.65;1.10;;;24.00;41.70;;;;;;6166422;28;80430;-68
2024/03/25 09:01:58;;;;;;;2.67;1.13;;;23.90;41.60;;;;;;6154138;28;81189;-66
2024/03/25 09:04:58;;;;;;;1.00;0.70;;;23.90;41.60;;;;;;6139620;28;83298;-66
2024/03/25 09:07:59;;;;;;;0.70;0.70;;;23.90;41.50;;;;;;6150899;28;80584;-66
2024/03/25 09:11:02;;;;;;;0.90;0.80;;;24.00;41.70;;;;;;6157481;28;83039;-68
2024/03/25 09:14:04;;;;;;;1.25;1.00;;;23.90;41.60;;;;;;6162513;28;81108;-68
2024/03/25 09:17:04;;;;;;;0.80;0.80;;;24.00;41.90;;;;;;6169393;28;80383;-67
2024/03/25 09:20:16;;;;;;;0.65;0.63;;;24.00;41.90;;;;;;6162332;28;82074;-66
2024/03/25 09:23:16;;;;;;;1.13;0.85;;;24.00;41.90;;;;;;6145488;28;87124;-52
2024/03/25 09:26:17;;;;;;;1.48;0.90;;;24.00;42.00;;;;;;6148630;28;81767;-53
2024/03/25 09:29:17;;;;;;;1.15;0.90;;;23.90;42.80;;;;;;6164386;28;81924;-54
2024/03/25 09:32:18;;;;;;;1.33;0.85;;;23.90;42.30;;;;;;6174212;28;81414;-52
2024/03/25 09:35:19;;;;;;;2.08;0.80;;;23.90;42.40;;;;;;6161369;28;80411;-56
2024/03/25 09:38:20;;;;;;;0.90;0.70;;;23.90;42.30;;;;;;6154251;28;80439;-53
2024/03/25 09:41:20;;;;;;;1.08;0.80;;;23.90;42.50;;;;;;6164566;28;81447;-58
2024/03/25 09:44:21;;;;;;;1.52;1.00;;;23.90;42.40;;;;;;6162063;28;81511;-56
2024/03/25 09:47:21;;;;;;;1.83;0.90;;;23.90;42.50;;;;;;6153296;28;81354;-54
2024/03/25 09:50:22;;;;;;;1.45;1.02;;;23.90;42.30;;;;;;6159131;28;81322;-57
2024/03/25 09:53:22;;;;;;;1.73;0.93;;;23.90;42.40;;;;;;6154168;28;80759;-57
2024/03/25 09:56:23;;;;;;;1.98;1.25;;;24.00;42.60;;;;;;6158063;28;82760;-53
2024/03/25 09:59:23;;;;;;;1.20;0.73;;;24.00;43.10;;;;;;6154032;28;80459;-55
2024/03/25 10:02:26;;;;;;;0.80;0.80;;;24.00;42.80;;;;;;6154303;28;80442;-54
2024/03/25 10:05:27;;;;;;;1.85;1.00;;;24.00;42.80;;;;;;6153310;28;80385;-55
2024/03/25 10:08:30;;;;;;;1.85;1.05;;;24.00;42.70;;;;;;6161045;28;83788;-53
2024/03/25 10:11:32;;;;;;;2.10;0.98;;;24.00;42.60;;;;;;6161148;28;80696;-53
2024/03/25 10:14:32;;;;;;;0.88;0.80;;;24.00;42.70;;;;;;6144227;28;82770;-51
2024/03/25 10:17:33;;;;;;;2.03;1.08;;;24.00;43.10;;;;;;6143593;28;80980;-56
2024/03/25 10:20:34;;;;;;;1.60;0.88;;;24.10;42.70;;;;;;6135539;28;80459;-55
2024/03/25 10:23:40;;;;;;;2.40;1.23;;;24.10;42.50;;;;;;6139067;28;80548;-54
2024/03/25 10:26:40;;;;;;;;;;;24.20;42.40;;;;;;6154638;28;81076;-52
2024/03/25 10:29:41;;;;;;;1.58;1.35;;;24.30;42.50;;;;;;6169260;28;80552;-51
2024/03/25 10:32:42;;;;;;;1.45;0.90;;;24.30;42.40;;;;;;6165692;28;80426;-50
2024/03/25 10:35:43;;;;;;;2.08;0.90;;;24.30;42.40;;;;;;6153769;28;80708;-59
2024/03/25 10:38:43;;;;;;;0.90;0.80;;;24.30;42.20;;;;;;6152217;28;80544;-56
2024/03/25 10:41:44;;;;;;;2.38;0.75;;;24.30;42.10;;;;;;6152029;28;81618;-56
2024/03/25 10:44:44;;;;;;;1.05;0.90;;;24.30;42.10;;;;;;6152512;28;81605;-58
2024/03/25 10:47:45;;;;;;;1.70;0.98;;;24.40;42.00;;;;;;6152516;28;80929;-59
2024/03/25 10:50:45;;;;;;;0.85;0.85;;;24.40;41.90;;;;;;6151365;28;80412;-58
2024/03/25 10:53:46;;;;;;;1.40;0.80;;;24.40;41.80;;;;;;6154679;28;80997;-56
2024/03/25 10:56:51;;;;;;;1.20;0.90;;;24.40;41.90;;;;;;6155006;28;80780;-56
2024/03/25 10:59:51;;;;;;;0.93;0.70;;;24.40;42.20;;;;;;6154347;28;80201;-57
2024/03/25 11:02:52;;;;;;;1.10;0.90;;;24.30;42.40;;;;;;6162970;28;80695;-55
2024/03/25 11:05:53;;;;;;;2.35;1.05;;;24.30;42.40;;;;;;6158041;28;80525;-58
2024/03/25 11:08:53;;;;;;;1.38;1.20;;;24.30;42.60;;;;;;6153692;28;81071;-58
2024/03/25 11:11:54;;;;;;;2.83;1.17;;;24.30;42.10;;;;;;6153973;28;80180;-52
2024/03/25 11:14:55;;;;;;;2.00;1.05;;;24.30;41.90;;;;;;6154850;28;80659;-55
2024/03/25 11:17:56;;;;;;;1.92;1.00;;;24.30;41.90;;;;;;6154036;28;81503;-54
2024/03/25 11:20:56;;;;;;;1.20;0.95;;;24.30;42.00;;;;;;6155166;28;80434;-55
2024/03/25 11:23:57;;;;;;;2.17;1.00;;;24.20;42.00;;;;;;6167127;28;80862;-54
2024/03/25 11:26:58;;;;;;;1.48;1.00;;;24.20;42.40;;;;;;6154410;28;81374;-52
2024/03/25 11:29:59;;;;;;;1.67;1.20;;;24.20;42.50;;;;;;6147536;28;81371;-55
2024/03/25 11:32:59;;;;;;;1.10;1.00;;;24.20;42.20;;;;;;6134216;28;85185;-55
2024/03/25 11:36:00;;;;;;;1.40;1.00;;;24.20;42.20;;;;;;6145992;28;80398;-53
2024/03/25 11:39:04;;;;;;;1.10;0.80;;;24.10;42.00;;;;;;6161394;28;80603;-56
2024/03/25 11:42:04;;;;;;;2.63;1.00;;;24.10;42.10;;;;;;6161606;28;81561;-54
2024/03/25 11:45:05;;;;;;;2.83;0.80;;;24.10;42.10;;;;;;6151922;28;83442;-51
2024/03/25 11:48:05;;;;;;;2.88;1.00;;;24.10;42.20;;;;;;6168040;28;80627;-58
2024/03/25 11:51:06;;;;;;;0.73;0.70;;;24.10;42.40;;;;;;6169346;28;80742;-56
2024/03/25 11:54:06;;;;;;;0.90;0.60;;;23.70;40.90;;;;;;6166906;28;88261;-54
2024/03/25 11:57:07;;;;;;;2.58;0.88;;;23.40;39.80;;;;;;6154457;28;81600;-56
2024/03/25 12:00:13;;;;;;;1.10;0.70;;;23.00;39.50;;;;;;6164198;28;80705;-53
2024/03/25 12:03:18;;;;;;;1.33;0.60;;;22.90;39.70;;;;;;6155974;28;80624;-56
2024/03/25 12:06:19;;;;;;;2.42;0.80;;;22.80;39.50;;;;;;6152131;28;85899;-58
2024/03/25 12:12:39;;;;;;;1.13;0.70;;;22.40;39.50;;;;;;6163291;28;80857;-59
2024/03/25 12:15:40;;;;;;;1.50;0.70;;;22.30;39.70;;;;;;6155018;28;84819;-58
2024/03/25 12:18:41;;;;;;;1.75;0.77;;;22.30;39.80;;;;;;6152130;28;82332;-60
2024/03/25 12:21:42;;;;;;;3.60;1.00;;;22.20;39.80;;;;;;6152317;28;84964;-59
2024/03/25 12:24:42;;;;;;;1.40;1.00;;;22.10;40.10;;;;;;6151896;28;80638;-54
2024/03/25 12:27:43;;;;;;;1.23;0.90;;;21.90;40.30;;;;;;6161460;28;81638;-55
2024/03/25 12:30:43;;;;;;;1.00;0.80;;;22.20;40.50;;;;;;6171574;28;80679;-52
2024/03/25 12:33:44;;;;;;;0.77;0.77;;;22.40;40.60;;;;;;6161824;28;80432;-59
2024/03/25 12:36:44;;;;;;;0.80;0.80;;;22.70;40.80;;;;;;6152376;28;85199;-54
2024/03/25 12:39:45;;;;;;;7.88;0.95;;;22.90;40.80;;;;;;6155908;28;80437;-54
2024/03/25 12:42:45;;;;;;;1.27;0.93;;;23.00;40.80;;;;;;6166834;28;80870;-58
2024/03/25 12:45:46;;;;;;;1.80;0.93;;;23.10;41.00;;;;;;6149619;28;80500;-60
2024/03/25 12:48:46;;;;;;;1.10;0.90;;;23.10;40.80;;;;;;6146254;28;85195;-58
2024/03/25 12:51:47;;;;;;;2.08;1.00;;;23.20;40.70;;;;;;6150846;28;80538;-57
2024/03/25 12:54:47;;;;;;;1.52;0.90;;;23.30;41.00;;;;;;6148101;28;81154;-59
2024/03/25 12:57:48;;;;;;;1.85;1.00;;;23.30;40.90;;;;;;6148834;28;81699;-60
2024/03/25 13:00:48;;;;;;;1.25;1.00;;;23.30;40.90;;;;;;6163009;28;80440;-60
2024/03/25 13:03:49;;;;;;;0.98;0.88;;;23.40;40.90;;;;;;6152670;28;80484;-67
2024/03/25 13:06:49;;;;;;;2.35;0.90;;;23.40;40.90;;;;;;6165544;28;80466;-64
2024/03/25 13:09:50;;;;;;;1.60;0.93;;;23.40;40.90;;;;;;6164212;28;80364;-65
2024/03/25 13:12:50;;;;;;;2.80;0.90;;;23.50;41.00;;;;;;6153416;28;80260;-67
2024/03/25 13:15:51;;;;;;;1.08;0.93;;;23.50;40.90;;;;;;6152185;28;80620;-69
2024/03/25 13:18:51;;;;;;;1.55;1.17;;;23.60;40.80;;;;;;6171476;28;85017;-63
2024/03/25 13:21:52;;;;;;;1.52;0.80;;;23.80;40.80;;;;;;6164054;28;80804;-68
2024/03/25 13:24:53;;;;;;;3.03;1.13;;;23.80;40.80;;;;;;6158119;28;80974;-66
2024/03/25 13:27:53;;;;;;;1.40;0.90;;;23.90;40.90;;;;;;6168361;28;80393;-65
2024/03/25 13:30:54;;;;;;;1.45;0.80;;;23.90;41.00;;;;;;6155238;28;80611;-68
2024/03/25 13:33:54;;;;;;;2.03;0.90;;;24.00;41.10;;;;;;6156682;28;83516;-66
2024/03/25 13:36:55;;;;;;;1.15;0.90;;;24.00;41.10;;;;;;6151100;28;82807;-67
2024/03/25 13:39:55;;;;;;;1.08;0.80;;;24.10;41.10;;;;;;6150474;28;80580;-57
2024/03/25 13:42:56;;;;;;;0.95;0.75;;;24.10;41.00;;;;;;6151480;28;80698;-58
2024/03/25 13:45:56;;;;;;;1.00;0.77;;;24.20;41.10;;;;;;6160961;28;81042;-56
2024/03/25 13:48:57;;;;;;;1.10;0.77;;;24.20;41.40;;;;;;6154532;28;81234;-57
2024/03/25 13:52:00;;;;;;;1.70;1.02;;;24.30;41.20;;;;;;6157776;28;80554;-59
2024/03/25 13:55:01;;;;;;;1.83;1.08;;;24.30;41.10;;;;;;6155790;28;80395;-58
2024/03/25 13:58:01;;;;;;;1.25;0.90;;;24.30;41.20;;;;;;6162062;28;81223;-54
2024/03/25 14:01:02;;;;;;;3.33;0.95;;;24.30;41.20;;;;;;6155782;28;80879;-56
2024/03/25 14:04:04;;;;;;;1.50;0.80;;;24.30;41.20;;;;;;6155147;28;80927;-54
2024/03/25 14:07:04;;;;;;;1.23;0.80;;;24.30;41.20;;;;;;6168240;28;80940;-51
2024/03/25 14:10:05;;;;;;;1.45;0.90;;;24.30;41.30;;;;;;6168006;28;81107;-52
2024/03/25 14:13:05;;;;;;;1.75;0.93;;;24.30;41.40;;;;;;6155263;28;80829;-56
2024/03/25 14:16:06;;;;;;;0.75;0.60;;;24.30;41.50;;;;;;6166367;28;81166;-60
2024/03/25 14:19:06;;;;;;;0.70;0.70;;;24.30;41.60;;;;;;6175565;28;82063;-57
2024/03/25 14:22:07;;;;;;;2.38;1.05;;;24.30;41.60;;;;;;6165180;28;80509;-57
2024/03/25 14:25:07;;;;;;;1.23;0.70;;;24.30;41.70;;;;;;6153271;28;81834;-58
2024/03/25 14:28:08;;;;;;;2.30;0.77;;;24.40;41.80;;;;;;6138813;28;81409;-58
2024/03/25 14:31:08;;;;;;;0.80;0.80;;;24.40;41.60;;;;;;6145969;28;80520;-58
2024/03/25 14:34:09;;;;;;;2.70;1.08;;;24.40;41.60;;;;;;6137108;28;80744;-59
2024/03/25 14:37:09;;;;;;;1.45;0.98;;;24.40;41.50;;;;;;6155843;28;80793;-58
2024/03/25 14:40:10;;;;;;;1.75;1.00;;;24.50;41.60;;;;;;6154717;28;80935;-58
2024/03/25 14:43:10;;;;;;;1.60;0.80;;;24.50;41.70;;;;;;6159182;28;80371;-57
2024/03/25 14:46:11;;;;;;;2.03;1.00;;;24.50;41.60;;;;;;6159490;28;80341;-58
2024/03/25 14:49:11;;;;;;;1.05;0.95;;;24.50;41.60;;;;;;6153622;28;82549;-58
2024/03/25 14:52:12;;;;;;;1.27;0.70;;;24.40;41.70;;;;;;6164662;28;81348;-58
2024/03/25 14:55:12;;;;;;;0.95;0.85;;;24.40;41.90;;;;;;6156765;28;80331;-59
2024/03/25 14:58:13;;;;;;;1.23;0.90;;;24.40;42.10;;;;;;6158948;28;80411;-60
2024/03/25 15:01:13;;;;;;;5.75;1.33;;;24.40;42.10;;;;;;6147819;28;80874;-54
2024/03/25 15:04:14;;;;;;;1.65;1.10;;;24.40;42.50;;;;;;6167433;28;81245;-59
2024/03/25 15:07:14;;;;;;;3.25;0.98;;;24.30;42.50;;;;;;6157994;28;80922;-54
2024/03/25 15:10:15;;;;;;;3.80;1.10;;;24.30;42.60;;;;;;6153437;28;80410;-64
2024/03/25 15:13:15;;;;;;;9.27;2.15;;;24.30;42.80;;;;;;6163136;28;80543;-66
2024/03/25 15:16:16;;;;;;;4.80;1.25;;;24.30;43.00;;;;;;6169701;28;80729;-66
2024/03/25 15:19:17;;;;;;;3.13;1.05;;;24.40;43.10;;;;;;6171473;28;81494;-68
2024/03/25 15:22:17;;;;;;;6.72;0.98;;;24.40;43.30;;;;;;6172409;28;81105;-67
2024/03/25 15:25:19;;;;;;;2.15;1.13;;;24.40;43.30;;;;;;6158458;28;81315;-65
2024/03/25 15:28:19;;;;;;;2.90;0.90;;;24.40;43.60;;;;;;6148785;28;84788;-57
2024/03/25 15:31:20;;;;;;;2.03;1.00;;;24.50;43.60;;;;;;6151708;28;80848;-61
2024/03/25 15:34:21;;;;;;;3.67;1.35;;;24.50;43.70;;;;;;6164627;28;85147;-58
2024/03/25 15:37:22;;;;;;;2.70;1.00;;;24.50;43.60;;;;;;6161031;28;80594;-59
2024/03/25 15:40:22;;;;;;;7.18;1.15;;;24.50;43.60;;;;;;6159600;28;80476;-58
2024/03/25 15:43:23;;;;;;;2.00;1.30;;;24.50;43.60;;;;;;6155774;28;80888;-59
2024/03/25 15:46:23;;;;;;;2.72;1.10;;;24.60;43.80;;;;;;6171840;28;83234;-66
2024/03/25 15:49:24;;;;;;;0.80;0.80;;;24.60;43.70;;;;;;6166953;28;80777;-67